Arkansas City, AR

4:44 PM CST on February 01, 2015 (GMT -0600)
Mid Delta Regional | Change Station
CLOSE
Current Station
Airport
Location: Greenville,
Elevation: 131 ft
Nearby Weather Stations
Active Advisory: Lake Wind Advisory

Elev 131 ft 33.48 °N, 90.99 °W | Updated 51 minutes ago

Overcast
Overcast
60 °F
Feels Like 60 °F
N
15
Wind Variable Wind from WNW
Gusts 22 mph

Today
High -- | Low -- °F
--% Chance of Precip.
Yesterday
High -- | Low -- °F
Precip. -- in
7:01 AM 5:36 PM
Waxing Gibbous, 96% visible
Pressure 29.80 in
Visibility 8.0 miles
Clouds Mostly Cloudy 5000 ft
Overcast 10000 ft
Dew Point 56 °F
Humidity 86%
Rainfall 0.17 in
Snow Depth Not available.
UV 0 out of 12
Pollen 7.20 out of 12
Air Quality Not available.
Flu Activity Not available.
METAR KGLH 012153Z AUTO 29013G19KT 8SM -RA BKN050 OVC100 16/13 A2977 RMK AO2 PK WND 29028/2119 SLP089 P0015 T01560133

More Conditions Fewer Conditions

Pressure 29.80 in
Visibility 8.0 miles
Clouds Mostly Cloudy 5000 ft
Overcast 10000 ft
Dew Point 56 °F
Humidity 86%
Rainfall 0.17 in
Snow Depth Not available.
UV 0 out of 12
Pollen 7.20 out of 12
Air Quality Not available.
Flu Activity Not available.
METAR KGLH 012153Z AUTO 29013G19KT 8SM -RA BKN050 OVC100 16/13 A2977 RMK AO2 PK WND 29028/2119 SLP089 P0015 T01560133

More Conditions Fewer Conditions

10-Day Weather Forecast

Almanac

Astronomy

Feb. 01, 2015 Rise Set
Actual Time
Civil Twilight
Nautical Twilight
Astronomical Twilight
Moon
Length of Visible Light
Length of Day
Tomorrow will be .
, % of the Moon is Illuminated

Today's Extremes

State Highs State Lows

Community

WunderPhotos

Upload Photos

1,792,581 photos uploaded!

WunderBlogs® & News

Nearby

Air Quality

  Air Quality AQ Index Pollutant
Not available.

Snow Depth

Station Depth Elevation

Earthquake Activity

City Distance Mag. Time & Date
Minimum magnitude displayed is 2.5.

Coastal Water Temperatures

Place Temperature

Nearby Weather Stations